createdAt,value
2017-04-27T00:00:55.557Z,22.0
2017-04-27T00:02:03.645Z,22.0
2017-04-27T00:03:11.727Z,22.0
2017-04-27T00:04:19.821Z,22.0
2017-04-27T00:05:27.903Z,22.0
2017-04-27T00:06:35.987Z,22.1
2017-04-27T00:07:44.074Z,22.0
2017-04-27T00:08:52.168Z,21.9
2017-04-27T00:10:00.250Z,22.0
2017-04-27T00:11:08.333Z,21.9
2017-04-27T00:12:16.424Z,22.0
2017-04-27T00:13:24.509Z,21.9
2017-04-27T00:14:32.597Z,22.0
2017-04-27T00:15:40.680Z,21.9
2017-04-27T00:16:48.769Z,21.9
2017-04-27T00:17:56.852Z,22.0
2017-04-27T00:19:04.941Z,21.9
2017-04-27T00:20:13.028Z,21.9
2017-04-27T00:21:21.124Z,21.9
2017-04-27T00:22:29.202Z,21.9
2017-04-27T00:23:37.294Z,21.9
2017-04-27T00:24:45.383Z,21.9
2017-04-27T00:25:53.468Z,21.9
2017-04-27T00:27:01.555Z,21.8
2017-04-27T00:28:09.640Z,21.9
2017-04-27T00:29:17.723Z,21.8
2017-04-27T00:30:25.809Z,21.8
2017-04-27T00:31:33.897Z,21.8
2017-04-27T00:32:41.984Z,21.8
2017-04-27T00:33:50.095Z,21.8
2017-04-27T00:34:58.153Z,21.8
2017-04-27T00:36:06.247Z,21.8
2017-04-27T00:37:14.331Z,21.8
2017-04-27T00:38:22.421Z,21.8
2017-04-27T00:39:30.506Z,21.7
2017-04-27T00:40:38.594Z,21.8
2017-04-27T00:41:46.687Z,21.8
2017-04-27T00:42:54.763Z,21.7
2017-04-27T00:44:02.863Z,21.7
2017-04-27T00:45:10.945Z,21.7
2017-04-27T00:46:19.027Z,21.8
2017-04-27T00:47:27.116Z,21.7
2017-04-27T00:48:35.206Z,21.7
2017-04-27T00:49:43.295Z,21.7
2017-04-27T00:50:51.375Z,21.7
2017-04-27T00:51:59.469Z,21.7
2017-04-27T00:53:07.553Z,21.6
2017-04-27T00:54:15.635Z,21.7
2017-04-27T00:55:23.725Z,21.7
2017-04-27T00:56:31.814Z,21.6
2017-04-27T00:57:39.896Z,21.7
2017-04-27T00:58:47.982Z,21.7
2017-04-27T00:59:56.069Z,21.7
2017-04-27T01:01:04.155Z,21.7
2017-04-27T01:52:08.019Z,21.3
2017-04-27T01:53:16.134Z,21.3
2017-04-27T01:54:24.191Z,21.3
2017-04-27T01:55:32.279Z,21.3
2017-04-27T01:56:40.364Z,21.2
2017-04-27T01:57:48.449Z,21.2
2017-04-27T01:58:56.537Z,21.4
2017-04-27T02:00:04.624Z,21.3
2017-04-27T02:01:12.708Z,21.3
2017-04-27T02:02:20.791Z,21.2
2017-04-27T02:03:28.884Z,21.1
2017-04-27T02:04:36.969Z,21.1
2017-04-27T02:05:45.052Z,21.2
2017-04-27T02:06:53.142Z,21.1
2017-04-27T02:08:01.229Z,21.1
2017-04-27T02:09:09.314Z,21.1
2017-04-27T02:10:17.403Z,21.1
2017-04-27T02:11:25.491Z,21.2
2017-04-27T02:12:33.575Z,21.1
2017-04-27T02:13:41.659Z,21.1
2017-04-27T02:14:49.747Z,21.1
2017-04-27T02:15:57.837Z,21.1
2017-04-27T02:17:05.916Z,21.1
2017-04-27T02:18:14.004Z,21.1
2017-04-27T02:19:22.088Z,21.1
2017-04-27T02:20:30.171Z,21.0
2017-04-27T02:21:38.256Z,21.0
2017-04-27T02:22:46.344Z,21.0
2017-04-27T02:23:54.427Z,21.1
2017-04-27T02:25:02.511Z,21.1
2017-04-27T02:26:10.600Z,21.0
2017-04-27T02:27:18.684Z,21.0
2017-04-27T02:28:26.769Z,20.9
2017-04-27T02:29:34.857Z,21.0
2017-04-27T02:30:42.942Z,20.9
2017-04-27T02:31:51.025Z,20.9
2017-04-27T02:32:59.110Z,20.9
2017-04-27T02:34:07.205Z,20.9
2017-04-27T02:35:15.290Z,20.9
2017-04-27T02:36:23.377Z,20.9
2017-04-27T02:37:31.466Z,20.9
2017-04-27T02:38:39.553Z,20.9
2017-04-27T02:39:47.641Z,20.9
2017-04-27T02:40:55.721Z,20.9
2017-04-27T02:42:03.813Z,20.9
2017-04-27T02:43:11.894Z,20.8
2017-04-27T02:44:19.976Z,20.8
2017-04-27T02:45:28.073Z,20.8
2017-04-27T02:46:36.150Z,20.8
2017-04-27T02:47:44.235Z,20.8
2017-04-27T02:48:52.321Z,20.9
2017-04-27T02:50:00.405Z,20.8
2017-04-27T02:51:08.491Z,20.8
2017-04-27T02:52:16.573Z,20.7
2017-04-27T02:53:24.664Z,20.7
2017-04-27T02:54:32.748Z,20.7
2017-04-27T02:55:40.825Z,20.7
2017-04-27T02:56:48.919Z,20.7
2017-04-27T02:57:57.013Z,20.7
2017-04-27T02:59:05.103Z,20.7
2017-04-27T03:00:13.209Z,20.7
2017-04-27T03:01:21.269Z,20.7
2017-04-27T03:02:29.356Z,20.6
2017-04-27T03:03:37.442Z,20.6
2017-04-27T03:04:45.522Z,20.7
2017-04-27T03:05:53.609Z,20.6
2017-04-27T03:07:01.699Z,20.6
2017-04-27T03:08:09.792Z,20.6
2017-04-27T03:09:17.879Z,20.5
2017-04-27T03:10:25.962Z,20.6
2017-04-27T03:11:34.051Z,20.5
2017-04-27T03:12:42.129Z,20.5
2017-04-27T03:13:50.221Z,20.5
2017-04-27T03:16:09.853Z,20.5
2017-04-27T03:17:14.469Z,20.5
2017-04-27T03:18:22.555Z,20.5
2017-04-27T03:19:30.756Z,20.6
2017-04-27T03:20:38.722Z,20.4
2017-04-27T03:21:46.809Z,20.5
2017-04-27T03:22:54.893Z,20.5
2017-04-27T03:24:02.973Z,20.3
2017-04-27T03:25:11.062Z,20.5
2017-04-27T03:26:19.147Z,20.5
2017-04-27T03:27:27.228Z,20.3
2017-04-27T03:28:35.312Z,20.5
2017-04-27T03:29:43.400Z,20.5
2017-04-27T03:30:51.484Z,20.3
2017-04-27T03:31:59.565Z,20.3
2017-04-27T03:33:07.655Z,20.4
2017-04-27T03:34:15.740Z,20.3
2017-04-27T03:35:23.826Z,20.4
2017-04-27T03:36:31.916Z,20.4
2017-04-27T03:37:39.992Z,20.4
2017-04-27T03:38:48.076Z,20.4
2017-04-27T03:39:56.158Z,20.3
2017-04-27T03:41:04.244Z,20.3
2017-04-27T03:42:12.330Z,20.3
2017-04-27T03:43:20.410Z,20.2
2017-04-27T03:44:28.534Z,20.2
2017-04-27T03:45:36.586Z,20.3
2017-04-27T03:46:44.671Z,20.2
2017-04-27T03:47:52.795Z,20.3
2017-04-27T03:49:00.841Z,20.2
2017-04-27T03:50:08.928Z,20.2
2017-04-27T03:51:17.011Z,20.3
2017-04-27T03:52:25.097Z,20.2
2017-04-27T03:53:33.190Z,20.2
2017-04-27T03:54:41.269Z,20.2
2017-04-27T03:55:49.356Z,20.2
2017-04-27T03:56:57.461Z,20.1
2017-04-27T03:58:05.543Z,20.1
2017-04-27T03:59:13.626Z,20.1
2017-04-27T04:00:21.716Z,20.0
2017-04-27T04:01:29.798Z,20.1
2017-04-27T04:02:37.887Z,20.1
2017-04-27T04:03:45.968Z,20.1
2017-04-27T04:04:54.058Z,20.0
2017-04-27T04:06:02.139Z,20.1
2017-04-27T04:07:10.224Z,20.1
2017-04-27T04:08:18.310Z,20.1
2017-04-27T04:09:26.397Z,20.0
2017-04-27T04:10:34.483Z,20.1
2017-04-27T04:11:42.560Z,20.1
2017-04-27T04:12:50.648Z,20.0
2017-04-27T04:13:58.734Z,20.0
2017-04-27T04:15:06.818Z,20.0
2017-04-27T04:16:14.903Z,19.9
2017-04-27T04:17:22.985Z,20.0
2017-04-27T04:18:31.067Z,20.0
2017-04-27T04:19:39.151Z,19.9
2017-04-27T04:20:47.238Z,20.0
2017-04-27T04:21:55.322Z,19.9
2017-04-27T04:23:03.403Z,19.9
2017-04-27T04:24:11.492Z,20.0
2017-04-27T04:25:19.576Z,19.9
2017-04-27T04:26:27.667Z,19.9
2017-04-27T04:27:35.749Z,19.9
2017-04-27T04:28:43.834Z,19.9
2017-04-27T04:29:51.918Z,19.9
2017-04-27T04:31:00.005Z,19.9
2017-04-27T04:32:08.089Z,19.9
2017-04-27T04:33:16.179Z,19.9
2017-04-27T04:34:24.257Z,19.9
2017-04-27T04:35:32.345Z,19.9
2017-04-27T04:36:40.429Z,20.0
2017-04-27T04:37:48.513Z,20.0
2017-04-27T04:38:56.620Z,20.0
2017-04-27T04:40:04.682Z,19.9
2017-04-27T04:41:12.765Z,20.0
2017-04-27T04:42:20.857Z,20.0
2017-04-27T04:43:28.945Z,20.0
2017-04-27T04:44:37.030Z,20.0
2017-04-27T04:45:45.113Z,19.9
2017-04-27T04:46:53.195Z,20.0
2017-04-27T04:48:01.376Z,20.0
2017-04-27T04:49:09.370Z,20.0
2017-04-27T04:50:17.452Z,20.0
2017-04-27T04:51:25.539Z,20.0
2017-04-27T04:52:33.620Z,20.1
2017-04-27T04:53:41.707Z,20.1
2017-04-27T04:54:49.793Z,20.0
2017-04-27T04:55:57.879Z,20.1
2017-04-27T04:57:05.964Z,20.1
2017-04-27T04:58:14.047Z,20.1
2017-04-27T04:59:22.142Z,20.1
2017-04-27T05:00:30.226Z,20.1
2017-04-27T05:01:38.307Z,20.1
2017-04-27T05:02:46.389Z,20.1
2017-04-27T05:03:54.476Z,20.1
2017-04-27T05:05:02.586Z,20.1
2017-04-27T05:06:10.642Z,20.3
2017-04-27T05:07:19.063Z,20.2
2017-04-27T05:08:26.828Z,20.1
2017-04-27T05:09:34.909Z,20.2
2017-04-27T05:10:43.678Z,20.2
2017-04-27T05:11:51.080Z,20.2
2017-04-27T05:12:59.170Z,20.3
2017-04-27T05:14:07.248Z,20.2
2017-04-27T05:15:15.338Z,20.2
2017-04-27T05:16:23.423Z,20.2
2017-04-27T05:17:31.505Z,20.2
2017-04-27T05:18:39.598Z,20.1
2017-04-27T05:19:47.678Z,20.3
2017-04-27T05:20:55.763Z,20.2
2017-04-27T05:22:03.861Z,20.2
2017-04-27T05:23:11.932Z,20.3
2017-04-27T05:24:20.022Z,20.3
2017-04-27T05:25:28.109Z,20.3
2017-04-27T05:26:36.192Z,20.3
2017-04-27T05:27:44.280Z,20.3
2017-04-27T05:28:52.365Z,20.4
2017-04-27T05:30:00.683Z,20.4
2017-04-27T05:31:08.535Z,20.4
2017-04-27T05:32:16.621Z,20.3
2017-04-27T05:33:24.754Z,20.4
2017-04-27T05:34:32.785Z,20.4
2017-04-27T05:35:40.872Z,20.3
2017-04-27T05:36:48.956Z,20.3
2017-04-27T05:37:57.055Z,20.5
2017-04-27T05:39:05.127Z,20.5
2017-04-27T05:40:13.214Z,20.5
2017-04-27T05:41:21.299Z,20.4
2017-04-27T05:42:29.387Z,20.4
2017-04-27T05:43:37.474Z,20.5
2017-04-27T05:44:45.554Z,20.5
2017-04-27T05:45:53.644Z,20.4
2017-04-27T05:47:01.734Z,20.5
2017-04-27T05:48:09.826Z,20.5
2017-04-27T05:49:17.910Z,20.5
2017-04-27T05:50:25.992Z,20.5
2017-04-27T05:51:34.080Z,20.6
2017-04-27T05:52:42.162Z,20.5
2017-04-27T05:53:50.249Z,20.6
2017-04-27T05:54:58.334Z,20.6
2017-04-27T05:56:06.416Z,20.6
2017-04-27T05:57:14.499Z,20.6
2017-04-27T05:58:22.596Z,20.6
2017-04-27T05:59:30.685Z,20.6
2017-04-27T06:00:38.770Z,20.6
2017-04-27T06:01:46.852Z,20.7
2017-04-27T06:02:54.940Z,20.8
2017-04-27T06:04:03.024Z,20.7
2017-04-27T06:05:11.133Z,20.6
2017-04-27T06:06:19.192Z,20.7
2017-04-27T06:07:27.283Z,20.8
2017-04-27T06:08:35.361Z,20.7
2017-04-27T06:09:43.445Z,20.7
2017-04-27T06:10:51.536Z,20.7
2017-04-27T06:11:59.620Z,20.8
2017-04-27T06:13:07.707Z,20.8
2017-04-27T06:14:15.790Z,20.7
2017-04-27T06:15:23.878Z,20.9
2017-04-27T06:16:31.959Z,20.8
2017-04-27T06:17:40.050Z,20.8
2017-04-27T06:18:48.139Z,20.9
2017-04-27T06:19:56.228Z,20.8
2017-04-27T06:21:04.307Z,20.9
2017-04-27T06:22:12.394Z,20.9
2017-04-27T06:23:20.479Z,20.9
2017-04-27T06:24:28.573Z,20.9
2017-04-27T06:25:36.649Z,20.9
2017-04-27T06:26:44.738Z,20.9
2017-04-27T06:27:52.823Z,20.9
2017-04-27T06:29:00.913Z,20.9
2017-04-27T06:30:09.000Z,21.0
2017-04-27T06:31:17.089Z,21.0
2017-04-27T06:32:25.168Z,20.9
2017-04-27T06:33:33.257Z,20.9
2017-04-27T06:34:41.344Z,20.9
2017-04-27T06:35:49.433Z,21.0
2017-04-27T06:36:57.515Z,20.9
2017-04-27T06:38:05.599Z,21.0
2017-04-27T06:39:13.708Z,21.1
2017-04-27T06:40:21.765Z,20.9
2017-04-27T06:41:30.453Z,21.0
2017-04-27T06:42:38.153Z,21.0
2017-04-27T06:43:46.025Z,21.0
2017-04-27T06:44:54.111Z,21.0
2017-04-27T06:46:02.197Z,21.0
2017-04-27T06:47:10.285Z,21.0
2017-04-27T06:48:18.372Z,21.0
2017-04-27T06:49:26.456Z,21.0
2017-04-27T06:50:34.540Z,21.0
2017-04-27T06:51:42.629Z,21.0
2017-04-27T06:52:50.710Z,21.1
2017-04-27T06:53:58.797Z,21.1
2017-04-27T06:55:06.884Z,21.0
2017-04-27T06:56:14.972Z,21.0
2017-04-27T06:57:23.080Z,21.0
2017-04-27T06:58:31.228Z,21.1
2017-04-27T06:59:39.229Z,21.1
2017-04-27T07:00:47.315Z,21.0
2017-04-27T07:01:55.968Z,21.2
2017-04-27T07:03:03.490Z,21.1
2017-04-27T07:04:11.573Z,21.2
2017-04-27T07:05:19.663Z,21.2
2017-04-27T07:06:27.749Z,21.2
2017-04-27T07:07:35.905Z,21.2
2017-04-27T07:08:43.922Z,21.3
2017-04-27T07:09:52.019Z,21.3
2017-04-27T07:11:00.104Z,21.2
2017-04-27T07:12:08.190Z,21.3
2017-04-27T07:13:16.298Z,21.2
2017-04-27T07:14:24.361Z,21.3
2017-04-27T07:15:32.443Z,21.3
2017-04-27T07:16:40.527Z,21.3
2017-04-27T07:17:48.621Z,21.3
2017-04-27T07:18:56.698Z,21.4
2017-04-27T07:20:04.783Z,21.3
2017-04-27T07:21:12.870Z,21.3
2017-04-27T07:22:20.959Z,21.4
2017-04-27T07:23:29.047Z,21.4
2017-04-27T07:24:37.131Z,21.4
2017-04-27T07:25:45.229Z,21.4
2017-04-27T07:26:53.307Z,21.3
2017-04-27T07:28:01.391Z,21.4
2017-04-27T07:29:09.479Z,21.4
2017-04-27T07:30:17.566Z,21.4
2017-04-27T07:31:25.644Z,21.5
2017-04-27T07:32:33.734Z,21.4
2017-04-27T07:33:41.884Z,21.5
2017-04-27T07:34:49.908Z,21.5
2017-04-27T07:35:57.993Z,21.5
2017-04-27T07:37:06.086Z,21.5
2017-04-27T07:38:14.193Z,21.4
2017-04-27T07:39:22.617Z,21.5
2017-04-27T07:40:30.350Z,21.5
2017-04-27T07:41:38.427Z,21.5
2017-04-27T07:42:46.508Z,21.6
2017-04-27T07:43:55.233Z,21.6
2017-04-27T07:45:03.247Z,21.5
2017-04-27T07:46:10.768Z,21.6
2017-04-27T07:47:18.852Z,21.6
2017-04-27T07:48:26.942Z,21.6
2017-04-27T07:49:35.030Z,21.6
2017-04-27T07:50:43.121Z,21.6
2017-04-27T07:51:51.196Z,21.6
2017-04-27T07:52:59.286Z,21.6
2017-04-27T07:54:07.372Z,21.6
2017-04-27T07:55:15.455Z,21.7
2017-04-27T07:56:23.546Z,21.6
2017-04-27T07:57:31.637Z,21.6
2017-04-27T07:58:39.716Z,21.7
2017-04-27T07:59:47.804Z,21.6
2017-04-27T08:00:55.889Z,21.6
2017-04-27T08:02:03.973Z,21.7
2017-04-27T08:03:12.082Z,21.7
2017-04-27T08:04:20.144Z,21.6
2017-04-27T08:05:28.231Z,21.6
2017-04-27T08:06:36.312Z,21.6
2017-04-27T08:07:44.488Z,21.8
2017-04-27T08:08:52.487Z,21.7
2017-04-27T08:10:00.617Z,21.6
2017-04-27T08:11:08.663Z,21.7
2017-04-27T08:12:16.751Z,21.7
2017-04-27T08:13:24.835Z,21.7
2017-04-27T08:14:32.928Z,21.6
2017-04-27T08:15:41.015Z,21.6
2017-04-27T08:16:49.103Z,21.6
2017-04-27T08:17:57.195Z,21.6
2017-04-27T08:19:05.420Z,21.6
2017-04-27T08:20:13.362Z,21.6
2017-04-27T08:21:21.448Z,21.6
2017-04-27T08:22:29.535Z,21.6
2017-04-27T08:23:37.615Z,21.7
2017-04-27T08:24:46.194Z,21.6
2017-04-27T08:25:53.789Z,21.7
2017-04-27T08:27:01.871Z,21.7
2017-04-27T08:28:09.970Z,21.6
2017-04-27T08:29:18.047Z,21.7
2017-04-27T08:30:26.382Z,21.6
2017-04-27T08:31:34.221Z,21.7
2017-04-27T08:32:42.308Z,21.8
2017-04-27T08:33:50.403Z,21.6
2017-04-27T08:34:58.487Z,21.7
2017-04-27T08:36:06.572Z,21.7
2017-04-27T08:37:14.661Z,21.7
2017-04-27T08:38:22.749Z,21.7
2017-04-27T08:39:30.830Z,21.6
2017-04-27T08:40:38.920Z,21.6
2017-04-27T08:41:47.010Z,21.8
2017-04-27T08:42:55.098Z,21.7
2017-04-27T08:44:03.185Z,21.8
2017-04-27T08:45:11.267Z,21.7
2017-04-27T08:46:19.355Z,21.8
2017-04-27T08:47:27.442Z,21.7
2017-04-27T08:48:35.533Z,21.7
2017-04-27T08:49:43.618Z,21.7
2017-04-27T08:50:51.700Z,21.7
2017-04-27T08:51:59.791Z,21.8
2017-04-27T08:53:07.880Z,21.8
2017-04-27T08:54:16.066Z,21.8
2017-04-27T08:55:24.053Z,21.7
2017-04-27T08:56:32.195Z,21.7
2017-04-27T08:57:40.225Z,21.8
2017-04-27T08:58:48.310Z,21.7
2017-04-27T08:59:56.399Z,21.8
2017-04-27T09:01:04.544Z,21.8
2017-04-27T09:02:12.853Z,21.7
2017-04-27T09:03:20.655Z,21.7
2017-04-27T09:04:28.744Z,21.7
2017-04-27T09:05:36.827Z,21.7
2017-04-27T09:06:44.916Z,21.7
2017-04-27T09:07:53.006Z,21.7
2017-04-27T09:09:01.520Z,21.7
2017-04-27T09:10:09.665Z,21.8
2017-04-27T09:11:17.726Z,21.7
2017-04-27T09:12:25.611Z,21.8
2017-04-27T09:13:33.950Z,21.8
2017-04-27T09:14:41.547Z,21.7
2017-04-27T09:15:50.097Z,21.7
2017-04-27T09:16:57.693Z,21.7
2017-04-27T09:18:06.423Z,21.7
2017-04-27T09:19:13.917Z,21.7
2017-04-27T09:20:21.949Z,21.8
2017-04-27T09:21:30.042Z,21.7
2017-04-27T09:22:38.120Z,21.7
2017-04-27T09:23:46.857Z,21.8
2017-04-27T09:24:54.416Z,21.7
2017-04-27T09:26:02.781Z,21.8
2017-04-27T09:27:11.751Z,21.7
2017-04-27T09:28:18.554Z,21.7
2017-04-27T09:29:26.640Z,21.7
2017-04-27T09:30:35.356Z,21.7
2017-04-27T09:31:43.727Z,21.7
2017-04-27T09:32:50.901Z,21.7
2017-04-27T09:33:58.981Z,21.7
2017-04-27T09:35:07.071Z,21.7
2017-04-27T09:36:15.173Z,21.7
2017-04-27T09:37:23.252Z,21.8
2017-04-27T09:38:31.334Z,21.7
2017-04-27T09:39:39.422Z,21.7
2017-04-27T09:40:48.142Z,21.7
2017-04-27T09:41:56.401Z,21.7
2017-04-27T09:43:03.678Z,21.7
2017-04-27T09:44:12.277Z,21.7
2017-04-27T09:45:19.889Z,21.7
2017-04-27T09:46:28.017Z,21.7
2017-04-27T09:47:36.026Z,21.6
2017-04-27T09:48:44.660Z,21.6
2017-04-27T09:49:52.194Z,21.7
2017-04-27T09:51:00.292Z,21.7
2017-04-27T09:52:08.416Z,21.7
2017-04-27T09:53:16.475Z,21.7
2017-04-27T09:54:25.315Z,21.7
2017-04-27T09:55:32.632Z,21.7
2017-04-27T09:56:40.740Z,21.8
2017-04-27T09:57:48.914Z,21.7
2017-04-27T09:58:56.960Z,21.7
2017-04-27T10:00:05.105Z,21.7
2017-04-27T10:01:13.295Z,21.7
2017-04-27T10:02:21.583Z,21.7
2017-04-27T10:03:29.236Z,21.7
2017-04-27T10:04:37.522Z,21.6
2017-04-27T10:05:45.407Z,21.6
2017-04-27T10:06:53.719Z,21.7
2017-04-27T10:08:01.751Z,21.7
2017-04-27T10:09:09.714Z,21.7
2017-04-27T10:10:18.036Z,21.7
2017-04-27T10:11:25.984Z,21.7
2017-04-27T10:12:34.362Z,21.6
2017-04-27T10:13:42.183Z,21.7
2017-04-27T10:14:50.355Z,21.7
2017-04-27T10:15:58.186Z,21.7
2017-04-27T10:17:06.293Z,21.6
2017-04-27T10:18:14.367Z,21.7
2017-04-27T10:19:23.504Z,21.7
2017-04-27T10:20:30.531Z,21.7
2017-04-27T10:21:38.617Z,21.6
2017-04-27T10:22:46.887Z,21.7
2017-04-27T10:23:54.795Z,21.6
2017-04-27T10:25:02.878Z,21.6
2017-04-27T10:26:10.963Z,21.7
2017-04-27T10:27:19.063Z,21.8
2017-04-27T10:28:27.138Z,21.6
2017-04-27T10:29:35.224Z,21.5
2017-04-27T10:30:43.311Z,21.6
2017-04-27T10:31:51.396Z,21.6
2017-04-27T10:32:59.482Z,21.7
2017-04-27T10:34:07.660Z,21.7
2017-04-27T10:35:15.657Z,21.7
2017-04-27T10:36:23.742Z,21.7
2017-04-27T10:37:31.827Z,21.6
2017-04-27T10:38:39.911Z,21.6
2017-04-27T10:39:48.001Z,21.8
2017-04-27T10:40:56.088Z,21.7
2017-04-27T10:42:04.175Z,21.6
2017-04-27T10:43:12.262Z,21.7
2017-04-27T10:44:20.348Z,21.7
2017-04-27T10:45:28.434Z,21.6
2017-04-27T10:46:36.520Z,21.6
2017-04-27T10:47:44.605Z,21.5
2017-04-27T10:48:52.692Z,21.6
2017-04-27T10:50:00.778Z,21.6
2017-04-27T10:51:08.865Z,21.6
2017-04-27T10:52:16.949Z,21.7
2017-04-27T10:53:25.278Z,21.6
2017-04-27T10:54:33.125Z,21.5
2017-04-27T10:55:41.630Z,21.6
2017-04-27T10:56:49.295Z,21.6
2017-04-27T10:57:57.382Z,21.6
2017-04-27T10:59:05.470Z,21.5
2017-04-27T11:00:13.555Z,21.6
2017-04-27T11:01:21.642Z,21.6
2017-04-27T11:02:29.730Z,21.6
2017-04-27T11:03:37.817Z,21.5
2017-04-27T11:04:45.901Z,21.5
2017-04-27T11:05:53.990Z,21.5
2017-04-27T11:07:02.078Z,21.5
2017-04-27T11:08:10.161Z,21.6
2017-04-27T11:09:18.251Z,21.5
2017-04-27T11:10:26.380Z,21.5
2017-04-27T11:11:34.427Z,21.5
2017-04-27T11:12:42.510Z,21.5
2017-04-27T11:13:50.625Z,21.6
2017-04-27T11:14:58.685Z,21.5
2017-04-27T11:16:06.771Z,21.5
2017-04-27T11:17:14.859Z,21.5
2017-04-27T11:18:22.947Z,21.5
2017-04-27T11:19:31.305Z,21.5
2017-04-27T11:20:39.112Z,21.4
2017-04-27T11:21:47.201Z,21.5
2017-04-27T11:22:55.287Z,21.4
2017-04-27T11:24:03.375Z,21.4
2017-04-27T11:25:11.459Z,21.4
2017-04-27T11:26:19.550Z,21.4
2017-04-27T11:27:27.637Z,21.4
2017-04-27T11:28:35.718Z,21.4
2017-04-27T11:29:43.808Z,21.4
2017-04-27T11:30:51.891Z,21.4
2017-04-27T11:31:59.977Z,21.5
2017-04-27T11:33:08.066Z,21.4
2017-04-27T11:34:16.154Z,21.3
2017-04-27T11:35:24.239Z,21.4
2017-04-27T11:36:32.325Z,21.4
2017-04-27T11:37:40.411Z,21.4
2017-04-27T11:38:48.583Z,21.4
2017-04-27T11:39:56.943Z,21.3
2017-04-27T11:41:04.668Z,21.3
2017-04-27T11:42:12.754Z,21.4
2017-04-27T11:43:20.834Z,21.3
2017-04-27T11:44:28.925Z,21.4
2017-04-27T11:45:37.014Z,21.3
2017-04-27T11:46:45.102Z,21.3
2017-04-27T11:47:53.187Z,21.3
2017-04-27T11:49:01.276Z,21.3
2017-04-27T11:50:09.362Z,21.4
2017-04-27T11:51:17.449Z,21.3
2017-04-27T11:52:25.529Z,21.3
2017-04-27T11:53:33.618Z,21.3
2017-04-27T11:54:41.705Z,21.3
2017-04-27T11:55:49.790Z,21.2
2017-04-27T11:56:57.881Z,21.2
2017-04-27T11:58:05.968Z,21.2
2017-04-27T11:59:14.053Z,21.3
2017-04-27T12:00:22.141Z,21.3
2017-04-27T12:01:30.222Z,21.3
2017-04-27T12:02:38.312Z,21.2
2017-04-27T12:03:46.842Z,21.2
2017-04-27T12:04:54.480Z,21.3
2017-04-27T12:06:02.572Z,21.2
2017-04-27T12:07:10.657Z,21.2
2017-04-27T12:08:18.747Z,21.2
2017-04-27T12:09:26.832Z,21.2
2017-04-27T12:10:34.926Z,21.3
2017-04-27T12:11:43.002Z,21.2
2017-04-27T12:12:51.091Z,21.2
2017-04-27T12:13:59.180Z,21.2
2017-04-27T12:15:07.271Z,21.2
2017-04-27T12:16:15.354Z,21.3
2017-04-27T12:17:23.438Z,21.3
2017-04-27T12:18:31.527Z,21.2
2017-04-27T12:19:39.608Z,21.2
2017-04-27T12:20:47.697Z,21.3
2017-04-27T12:21:55.783Z,21.2
2017-04-27T12:23:03.865Z,21.2
2017-04-27T12:24:11.949Z,21.2
2017-04-27T12:25:20.041Z,21.2
2017-04-27T12:26:28.125Z,21.3
2017-04-27T12:27:36.211Z,21.2
2017-04-27T12:28:44.300Z,21.3
2017-04-27T12:29:52.386Z,21.3
2017-04-27T12:31:00.878Z,21.2
2017-04-27T12:32:08.557Z,21.3
2017-04-27T12:33:16.645Z,21.2
2017-04-27T12:34:24.731Z,21.3
2017-04-27T12:35:32.810Z,21.3
2017-04-27T12:36:40.903Z,21.3
2017-04-27T12:37:48.985Z,21.3
2017-04-27T12:38:57.068Z,21.3
2017-04-27T12:40:05.154Z,21.3
2017-04-27T12:41:13.247Z,21.4
2017-04-27T12:42:21.327Z,21.3
2017-04-27T12:43:29.416Z,21.3
2017-04-27T12:44:37.505Z,21.3
2017-04-27T12:45:45.591Z,21.4
2017-04-27T12:46:53.674Z,21.3
2017-04-27T12:48:01.764Z,21.3
2017-04-27T12:49:09.850Z,21.3
2017-04-27T12:50:17.934Z,21.3
2017-04-27T12:51:26.021Z,21.3
2017-04-27T12:52:34.155Z,21.4
2017-04-27T12:53:42.188Z,21.4
2017-04-27T12:54:50.279Z,21.4
2017-04-27T12:55:58.370Z,21.4
2017-04-27T12:57:06.458Z,21.3
2017-04-27T12:58:14.541Z,21.4
2017-04-27T12:59:22.627Z,21.4
2017-04-27T13:00:30.718Z,21.3
2017-04-27T13:01:38.811Z,21.3
2017-04-27T13:02:46.886Z,21.4
2017-04-27T13:03:54.983Z,21.5
2017-04-27T13:05:03.349Z,21.4
2017-04-27T13:06:11.148Z,21.4
2017-04-27T13:07:19.242Z,21.4
2017-04-27T13:08:27.324Z,21.5
2017-04-27T13:09:35.407Z,21.5
2017-04-27T13:10:43.490Z,21.5
2017-04-27T13:11:51.583Z,21.5
2017-04-27T13:12:59.729Z,21.5
2017-04-27T13:14:07.753Z,21.5
2017-04-27T13:15:15.845Z,21.6
2017-04-27T13:16:23.928Z,21.5
2017-04-27T13:17:32.009Z,21.5
2017-04-27T13:18:40.098Z,21.5
2017-04-27T13:19:48.188Z,21.6
2017-04-27T13:20:56.274Z,21.5
2017-04-27T13:22:04.358Z,21.5
2017-04-27T13:23:12.450Z,21.6
2017-04-27T13:24:20.535Z,21.5
2017-04-27T13:25:28.620Z,21.5
2017-04-27T13:26:36.703Z,21.6
2017-04-27T13:27:44.791Z,21.5
2017-04-27T13:28:52.884Z,21.6
2017-04-27T13:30:00.956Z,21.6
2017-04-27T13:31:09.050Z,21.5
2017-04-27T13:32:17.139Z,21.6
2017-04-27T13:33:25.222Z,21.6
2017-04-27T13:34:33.303Z,21.6
2017-04-27T13:35:41.395Z,21.6
2017-04-27T13:36:49.481Z,21.6
2017-04-27T13:37:57.568Z,21.6
2017-04-27T13:39:05.745Z,21.6
2017-04-27T13:40:13.736Z,21.6
2017-04-27T13:41:21.824Z,21.6
2017-04-27T13:42:29.914Z,21.7
2017-04-27T13:43:38.004Z,21.6
2017-04-27T13:44:46.093Z,21.7
2017-04-27T13:45:54.175Z,21.6
2017-04-27T13:47:02.263Z,21.6
2017-04-27T13:48:10.349Z,21.6
2017-04-27T13:49:18.434Z,21.6
2017-04-27T13:50:26.515Z,21.6
2017-04-27T13:51:34.611Z,21.6
2017-04-27T13:52:42.697Z,21.6
2017-04-27T13:53:50.779Z,21.6
2017-04-27T13:54:58.869Z,21.7
2017-04-27T13:56:07.012Z,21.7
2017-04-27T13:57:15.059Z,21.7
2017-04-27T13:58:23.135Z,21.6
2017-04-27T13:59:31.231Z,21.6
2017-04-27T14:00:39.309Z,21.7
2017-04-27T14:01:47.397Z,21.6
2017-04-27T14:02:55.481Z,21.6
2017-04-27T14:04:03.573Z,21.6
2017-04-27T14:05:11.654Z,21.7
2017-04-27T14:06:19.742Z,21.6
2017-04-27T14:07:27.829Z,21.6
2017-04-27T14:08:35.919Z,21.6
2017-04-27T14:09:44.000Z,21.6
2017-04-27T14:10:52.092Z,21.6
2017-04-27T14:12:00.175Z,21.6
2017-04-27T14:13:08.281Z,21.7
2017-04-27T14:14:16.345Z,21.6
2017-04-27T14:15:24.437Z,21.6
2017-04-27T14:16:32.528Z,21.6
2017-04-27T14:17:40.611Z,21.6
2017-04-27T14:18:48.703Z,21.7
2017-04-27T14:19:56.789Z,21.6
2017-04-27T14:21:04.878Z,21.6
2017-04-27T14:22:12.967Z,21.7
2017-04-27T14:23:21.052Z,21.6
2017-04-27T14:24:29.137Z,21.6
2017-04-27T14:25:37.219Z,21.6
2017-04-27T14:26:45.314Z,21.6
2017-04-27T14:27:53.397Z,21.6
2017-04-27T14:29:01.484Z,21.6
2017-04-27T14:30:09.574Z,21.6
2017-04-27T14:31:17.661Z,21.6
2017-04-27T14:32:25.747Z,21.6
2017-04-27T14:33:33.836Z,21.6
2017-04-27T14:34:41.950Z,21.6
2017-04-27T14:35:50.019Z,21.6
2017-04-27T14:36:58.182Z,21.6
2017-04-27T14:38:06.191Z,21.6
2017-04-27T14:39:14.279Z,21.6
2017-04-27T14:40:22.368Z,21.6
2017-04-27T14:41:30.449Z,21.6
2017-04-27T14:42:38.542Z,21.5
2017-04-27T14:43:46.630Z,21.5
2017-04-27T14:44:54.717Z,21.5
2017-04-27T14:46:02.801Z,21.6
2017-04-27T14:47:10.886Z,21.6
2017-04-27T14:48:18.972Z,21.5
2017-04-27T14:49:27.062Z,21.5
2017-04-27T14:50:35.151Z,21.5
2017-04-27T14:51:43.244Z,21.5
2017-04-27T14:52:55.915Z,21.5
2017-04-27T14:53:59.420Z,21.5
2017-04-27T14:55:07.504Z,21.5
2017-04-27T14:56:15.587Z,21.5
2017-04-27T14:57:23.673Z,21.6
2017-04-27T14:58:31.762Z,21.5
2017-04-27T14:59:39.852Z,21.5
2017-04-27T15:00:47.937Z,21.5
2017-04-27T15:01:56.024Z,21.5
2017-04-27T15:03:04.107Z,21.4
2017-04-27T15:04:12.191Z,21.4
2017-04-27T15:05:20.279Z,21.4
2017-04-27T15:06:28.368Z,21.4
2017-04-27T15:07:36.447Z,21.4
2017-04-27T15:08:44.534Z,21.4
2017-04-27T15:09:52.624Z,21.4
2017-04-27T15:11:00.709Z,21.4
2017-04-27T15:12:08.814Z,21.4
2017-04-27T15:13:16.897Z,21.4
2017-04-27T15:14:24.965Z,21.4
2017-04-27T15:15:33.049Z,21.4
2017-04-27T15:16:41.138Z,21.3
2017-04-27T15:17:49.225Z,21.3
2017-04-27T15:18:57.311Z,21.3
2017-04-27T15:20:05.392Z,21.4
2017-04-27T15:21:13.479Z,21.3
2017-04-27T15:22:21.567Z,21.3
2017-04-27T15:23:29.655Z,21.4
2017-04-27T15:24:37.739Z,21.4
2017-04-27T15:25:45.824Z,21.4
2017-04-27T15:26:53.912Z,21.3
2017-04-27T15:28:01.997Z,21.3
2017-04-27T15:29:10.087Z,21.4
2017-04-27T15:30:18.185Z,21.3
2017-04-27T15:31:26.266Z,21.4
2017-04-27T15:32:34.353Z,21.3
2017-04-27T15:33:42.443Z,21.3
2017-04-27T15:34:50.529Z,21.2
2017-04-27T15:35:58.618Z,21.2
2017-04-27T15:37:06.705Z,21.3
2017-04-27T15:38:14.789Z,21.3
2017-04-27T15:39:22.878Z,21.3
2017-04-27T15:40:30.959Z,21.2
2017-04-27T15:41:39.053Z,21.2
2017-04-27T15:42:47.143Z,21.2
2017-04-27T15:43:55.226Z,21.2
2017-04-27T15:45:03.308Z,21.1
2017-04-27T15:46:11.398Z,21.1
2017-04-27T15:47:19.484Z,21.2
2017-04-27T15:48:27.564Z,21.2
2017-04-27T15:49:35.655Z,21.2
2017-04-27T15:50:43.746Z,21.1
2017-04-27T15:51:51.827Z,21.2
2017-04-27T15:52:59.911Z,21.2
2017-04-27T15:54:07.996Z,21.1
2017-04-27T15:55:16.118Z,21.1
2017-04-27T15:56:24.163Z,21.2
2017-04-27T15:57:32.258Z,21.0